AirNav   Pilot Hours Calculator
 
 1128 users online  

SC60 Cockfield Aerodrome
Scranton, South Carolina, USA

GOING TO SCRANTON?


FAA INFORMATION EFFECTIVE 22 APRIL 2021

Location

FAA Identifier: SC60
Lat/Long: 33-54-14.5850N 079-41-02.2320W
33-54.243083N 079-41.037200W
33.9040514,-79.6839533
(estimated)
Elevation: 82 ft. / 25 m (estimated)
Variation: 06W (1985)
From city: 4 miles SE of SCRANTON, SC
Time zone: UTC -4 (UTC -5 during Standard Time)
Zip code: 29591

Airport Operations

Airport use: Private use. Permission required prior to landing
Activation date: 07/1984
Control tower: no
ARTCC: JACKSONVILLE CENTER
FSS: ANDERSON FLIGHT SERVICE STATION
Attendance: UNATNDD
Wind indicator: yes
Segmented circle: no

Airport Communications

WX AWOS-3 at CKI (14 nm SW): 124.775 (843-382-3000)
WX ASOS at FLO (17 nm N): PHONE 843-665-1306

Nearby radio navigation aids

VOR radial/distance  VOR name  Freq  Var
FLOr187/19.8FLORENCE VORTAC115.2003W

 
NDB name  Hdg/Dist  Freq  Var  ID
EVANS061/5.042006WCFY -.-. ..-. -.--
HORRY288/28.137008WHYW .... -.-- .--
ANDREWS350/28.325506WPHH .--. .... ....
MANNING060/32.238106WMNI -- -. ..
DARLINGTON169/33.924506WUDG ..- -.. --.
SUMTER106/34.125207WSMS ... -- ...
DILLON215/36.327409WDLC -.. .-.. -.-.
HARTSVILLE151/37.134107WHVS .... ...- ...

Airport Services

Runway Information

Runway 4/22

Dimensions: 2800 x 66 ft. / 853 x 20 m
Surface: turf
RUNWAY 4  RUNWAY 22
Traffic pattern: leftleft
Obstructions: trees, 50 ft. from runway
ROAD SOUTH OF RWY.
trees, 50 ft. from runway

Airport Ownership and Management from official FAA records

Ownership: Privately-owned
Owner: MYRTLE P. COCKFIELD
1530 MCKNIGHT RD
SCRANTON, SC 29591-5109
Phone 843-389-2318
Manager: MYRTLE P. COCKFIELD
1530 MCKNIGHT RD
SCRANTON, SC 29591-5109
Phone 843-389-2318

Airport Operational Statistics

Aircraft based on the field: 8
Single engine airplanes: 8
    

Additional Remarks

FOR CD CTC FLORENCE APCH AT 843-669-5194, WHEN APCH CLSD CTC JACKSONVILLE ARTCC AT 904-845-1592.

Instrument Procedures

There are no published instrument procedures at SC60.

Some nearby airports with instrument procedures:

51J - Lake City Municipal Airport-CJ Evans Field (5 nm SW)
KCKI - Williamsburg Regional Airport (14 nm SW)
KFLO - Florence Regional Airport (17 nm N)
KMAO - Marion County Airport (24 nm NE)
KPHH - Robert F Swinnie Airport (28 nm S)
 
Loc | Ops | Rwys | IFR | FBO | Links
Com | Nav | Svcs | Stats | Notes
Area around SC60 (Cockfield Aerodrome)
 
Road maps at: MapQuest Bing Google
 
Aerial photo
WARNING: Photo may not be current or correct
Aerial photo of SC60 (Cockfield Aerodrome)
Do you have a better or more recent aerial photo of Cockfield Aerodrome that you would like to share? If so, please send us your photo.

 
Sectional chart

 
Airport distance calculator
Flying to Cockfield Aerodrome? Find the distance to fly.

From to SC60

Sunrise and sunset
Times for 10-May-2021
 Local
(UTC-4)
 Zulu
(UTC)
Morning civil twilight05:5509:55
Sunrise06:2210:22
Sunset20:0800:08
Evening civil twilight20:3500:35

Current date and time
Zulu (UTC)  11-May-2021 00:20:31
Local (UTC-4)  10-May-2021 20:20:31
 
METAR
KCKI 
14nm SW 
102355Z AUTO 00000KT 10SM CLR 23/17 A2996 RMK AO2
KFLO 
17nm N 
102353Z 24004KT 10SM CLR 24/17 A2994 RMK AO2 SLP136 60000 T02440167 10272 20244 53008
KMAO 
24nm NE 
102355Z AUTO 23005KT 10SM CLR 23/17 A2995 RMK AO2
TAF
KFLO 
17nm N 
101720Z 1018/1118 24012KT P6SM SCT045 BKN150 FM102200 24007KT P6SM VCSH BKN150 FM110500 34005KT P6SM VCSH BKN020 FM110600 01004KT P6SM BKN015 FM110800 04007KT P6SM BKN005
NOTAMs
Click for the latest NOTAMs
NOTAMs are issued by the DoD/FAA and will open in a separate window not controlled by AirNav.

 

 
 

Would you like to see your business listed on this page?

 If your business provides an interesting product or service to pilots, flight crews, aircraft, or users of the Cockfield Aerodrome, you should consider listing it here.  To start the listing process, click on the button below
 
Add a business
 

Other Pages about Cockfield Aerodrome

Update a link
 
Copyright © AirNav, LLC. All rights reserved. Privacy Policy  Contact